createdAt,value
2022-10-22T00:04:40.382Z,28.80
2022-10-22T00:09:43.562Z,27.50
2022-10-22T00:14:47.177Z,28.60
2022-10-22T00:19:50.488Z,30.20
2022-10-22T00:29:57.004Z,29.10
2022-10-22T00:35:00.126Z,27.40
2022-10-22T00:40:05.162Z,29.00
2022-10-22T00:45:11.442Z,29.10
2022-10-22T00:51:00.934Z,27.00
2022-10-22T00:56:04.653Z,27.30
2022-10-22T01:01:13.180Z,27.60
2022-10-22T01:06:25.304Z,30.10
2022-10-22T01:11:54.322Z,29.60
2022-10-22T01:17:32.549Z,28.40
2022-10-22T01:22:44.718Z,28.60
2022-10-22T01:28:02.721Z,40.40
2022-10-22T01:33:09.613Z,30.00
2022-10-22T01:38:20.500Z,30.90
2022-10-22T01:43:23.811Z,38.20
2022-10-22T01:49:01.837Z,33.50
2022-10-22T01:54:34.637Z,51.60
2022-10-22T02:00:02.830Z,40.70
2022-10-22T02:05:17.612Z,43.90
2022-10-22T02:10:22.661Z,44.10
2022-10-22T02:15:29.984Z,27.10
2022-10-22T02:20:35.741Z,31.80
2022-10-22T02:25:42.351Z,34.90
2022-10-22T02:30:54.298Z,32.10
2022-10-22T02:35:59.901Z,33.90
2022-10-22T02:41:04.459Z,33.50
2022-10-22T02:46:07.849Z,33.90
2022-10-22T02:56:14.590Z,33.10
2022-10-22T03:01:17.811Z,33.50
2022-10-22T03:11:24.301Z,40.20
2022-10-22T03:16:27.507Z,36.20
2022-10-22T03:21:37.472Z,35.40
2022-10-22T03:26:42.933Z,35.90
2022-10-22T03:31:46.582Z,43.90
2022-10-22T03:36:50.272Z,37.40
2022-10-22T03:41:54.298Z,38.80
2022-10-22T03:47:00.218Z,34.80
2022-10-22T03:52:14.230Z,33.40
2022-10-22T03:57:17.645Z,35.70
2022-10-22T04:02:20.851Z,43.50
2022-10-22T04:07:24.266Z,43.80
2022-10-22T04:12:27.368Z,43.50
2022-10-22T04:17:38.113Z,83.90
2022-10-22T04:22:41.568Z,50.60
2022-10-22T04:27:44.674Z,39.30
2022-10-22T04:32:47.879Z,51.30
2022-10-22T04:37:51.088Z,42.20
2022-10-22T04:42:54.194Z,40.80
2022-10-22T04:47:57.301Z,43.70
2022-10-22T04:53:00.508Z,44.70
2022-10-22T04:58:03.715Z,57.80
2022-10-22T05:08:11.053Z,43.20
2022-10-22T05:13:14.157Z,36.50
2022-10-22T05:18:19.074Z,39.90
2022-10-22T05:23:25.896Z,45.50
2022-10-22T05:33:33.339Z,38.30
2022-10-22T05:38:36.856Z,39.10
2022-10-22T05:43:41.293Z,47.30
2022-10-22T05:48:44.927Z,49.60
2022-10-22T05:53:54.940Z,49.60
2022-10-22T05:58:59.261Z,76.60
2022-10-22T06:04:05.516Z,64.20
2022-10-22T06:09:29.538Z,56.70
2022-10-22T06:14:33.101Z,56.10
2022-10-22T06:19:36.722Z,55.90
2022-10-22T06:24:41.644Z,255.60
2022-10-22T06:29:48.973Z,137.80
2022-10-22T06:34:52.487Z,80.40
2022-10-22T06:39:55.489Z,111.50
2022-10-22T06:44:59.039Z,114.60
2022-10-22T06:50:03.564Z,159.00
2022-10-22T06:55:07.983Z,102.00
2022-10-22T07:00:12.300Z,90.60
2022-10-22T07:05:15.731Z,88.10
2022-10-22T07:10:18.991Z,67.70
2022-10-22T07:20:25.658Z,59.10
2022-10-22T07:25:28.766Z,58.30
2022-10-22T07:30:32.279Z,75.20
2022-10-22T07:35:38.332Z,62.00
2022-10-22T07:40:41.665Z,57.90
2022-10-22T07:45:46.003Z,79.90
2022-10-22T07:50:52.586Z,74.10
2022-10-22T07:55:55.794Z,74.00
2022-10-22T08:06:05.077Z,71.90
2022-10-22T08:11:08.288Z,80.70
2022-10-22T08:16:11.902Z,96.00
2022-10-22T08:26:18.728Z,42.20
2022-10-22T08:31:22.760Z,31.80
2022-10-22T08:36:26.379Z,18.40
2022-10-22T08:41:29.688Z,16.00
2022-10-22T08:46:48.664Z,17.10
2022-10-22T08:51:52.381Z,16.00
2022-10-22T08:57:17.100Z,16.60
2022-10-22T09:02:35.970Z,16.20
2022-10-22T09:07:43.867Z,15.80
2022-10-22T09:12:48.738Z,17.00
2022-10-22T09:18:16.737Z,14.40
2022-10-22T09:23:37.850Z,13.10
2022-10-22T09:28:41.467Z,13.10
2022-10-22T09:33:48.177Z,11.70
2022-10-22T09:38:53.307Z,10.20
2022-10-22T09:43:58.157Z,13.90
2022-10-22T09:49:07.006Z,11.70
2022-10-22T09:54:23.221Z,11.50
2022-10-22T09:59:39.013Z,12.50
2022-10-22T10:04:48.754Z,13.90
2022-10-22T10:09:54.121Z,13.90
2022-10-22T10:15:27.140Z,12.20
2022-10-22T10:20:56.874Z,12.60
2022-10-22T10:26:18.824Z,14.70
2022-10-22T10:31:40.356Z,13.40
2022-10-22T10:37:01.789Z,13.30
2022-10-22T10:42:17.183Z,17.00
2022-10-22T10:47:51.724Z,15.30
2022-10-22T10:53:08.348Z,14.00
2022-10-22T10:58:45.961Z,16.90
2022-10-22T11:03:58.292Z,16.00
2022-10-22T11:09:24.212Z,21.10
2022-10-22T11:14:42.177Z,20.20
2022-10-22T11:20:01.210Z,19.90
2022-10-22T11:25:13.477Z,20.90
2022-10-22T11:30:22.620Z,22.70
2022-10-22T11:35:31.468Z,23.30
2022-10-22T11:41:00.682Z,23.80
2022-10-22T11:46:27.137Z,25.70
2022-10-22T11:51:36.702Z,26.90
2022-10-22T11:56:40.307Z,30.50
2022-10-22T12:01:48.328Z,33.20
2022-10-22T12:07:00.536Z,29.30
2022-10-22T12:12:16.043Z,32.00
2022-10-22T12:17:22.212Z,33.50
2022-10-22T12:22:32.404Z,34.50
2022-10-22T12:27:38.356Z,35.60
2022-10-22T12:32:41.676Z,39.00
2022-10-22T12:37:45.150Z,37.40
2022-10-22T12:43:00.040Z,41.30
2022-10-22T12:48:15.467Z,36.60
2022-10-22T12:53:33.525Z,48.20
2022-10-22T12:58:48.617Z,47.10
2022-10-22T13:04:23.464Z,54.10
2022-10-22T13:09:27.750Z,49.50
2022-10-22T13:14:34.405Z,53.50
2022-10-22T13:19:52.849Z,51.80
2022-10-22T13:30:18.615Z,48.10
2022-10-22T13:35:27.263Z,49.80
2022-10-22T13:40:30.771Z,52.50
2022-10-22T13:45:33.976Z,49.50
2022-10-22T13:55:41.619Z,49.10
2022-10-22T14:00:47.748Z,47.50
2022-10-22T14:05:51.209Z,48.30
2022-10-22T14:10:55.621Z,53.90
2022-10-22T14:15:58.749Z,54.30
2022-10-22T14:21:07.736Z,54.20
2022-10-22T14:26:31.622Z,52.90
2022-10-22T14:31:36.669Z,52.40
2022-10-22T14:36:39.948Z,56.00
2022-10-22T14:41:43.668Z,51.80
2022-10-22T14:46:47.298Z,59.50
2022-10-22T14:51:51.005Z,122.10
2022-10-22T14:56:54.724Z,73.80
2022-10-22T15:01:58.240Z,58.50
2022-10-22T15:07:01.447Z,70.30
2022-10-22T15:17:07.663Z,54.10
2022-10-22T15:27:16.224Z,72.10
2022-10-22T15:32:19.533Z,66.40
2022-10-22T15:37:23.152Z,91.40
2022-10-22T15:42:26.360Z,159.60
2022-10-22T15:47:31.524Z,128.60
2022-10-22T15:52:34.926Z,83.60
2022-10-22T15:57:39.775Z,62.50
2022-10-22T16:02:43.287Z,194.80
2022-10-22T16:07:46.499Z,136.60
2022-10-22T16:12:51.866Z,122.70
2022-10-22T16:17:55.170Z,111.30
2022-10-22T16:22:58.575Z,135.50
2022-10-22T16:28:01.682Z,121.10
2022-10-22T16:33:06.296Z,165.50
2022-10-22T16:38:11.066Z,197.50
2022-10-22T16:43:14.688Z,217.60
2022-10-22T16:48:19.455Z,116.10
2022-10-22T16:53:22.805Z,124.40
2022-10-22T16:58:26.969Z,78.50
2022-10-22T17:03:30.082Z,97.10
2022-10-22T17:08:37.725Z,80.30
2022-10-22T17:13:42.126Z,76.00
2022-10-22T17:23:58.481Z,65.10
2022-10-22T17:29:01.784Z,74.30
2022-10-22T17:34:08.212Z,77.60
2022-10-22T17:39:17.006Z,1764.50
2022-10-22T17:44:20.519Z,1999.90
2022-10-22T17:49:24.039Z,951.90
2022-10-22T17:54:27.903Z,1092.20
2022-10-22T17:59:33.033Z,342.60
2022-10-22T18:04:36.564Z,475.60
2022-10-22T18:09:40.053Z,245.80
2022-10-22T18:14:43.571Z,297.60
2022-10-22T18:19:49.783Z,151.20
2022-10-22T18:24:53.350Z,187.70
2022-10-22T18:29:56.569Z,182.30
2022-10-22T18:40:08.766Z,93.90
2022-10-22T18:45:16.480Z,107.80
2022-10-22T18:50:20.418Z,172.30
2022-10-22T18:55:25.403Z,110.30
2022-10-22T19:00:28.922Z,128.90
2022-10-22T19:05:32.331Z,89.00
2022-10-22T19:10:35.846Z,127.00
2022-10-22T19:15:39.485Z,629.10
2022-10-22T19:20:46.505Z,1050.40
2022-10-22T19:26:04.004Z,252.20
2022-10-22T19:31:09.128Z,884.50
2022-10-22T19:36:14.312Z,273.90
2022-10-22T19:41:20.968Z,468.20
2022-10-22T19:46:26.557Z,141.10
2022-10-22T19:51:33.694Z,422.30
2022-10-22T19:56:38.513Z,150.80
2022-10-22T20:01:42.234Z,99.50
2022-10-22T20:06:46.440Z,174.30
2022-10-22T20:11:50.090Z,86.70
2022-10-22T20:16:53.696Z,309.30
2022-10-22T20:21:57.006Z,117.90
2022-10-22T20:27:00.924Z,382.50
2022-10-22T20:32:06.727Z,147.40
2022-10-22T20:37:12.289Z,79.20
2022-10-22T20:42:17.218Z,183.30
2022-10-22T20:47:21.281Z,81.80
2022-10-22T20:52:26.601Z,95.20
2022-10-22T20:57:30.287Z,92.30
2022-10-22T21:02:34.855Z,69.30
2022-10-22T21:07:38.065Z,160.50
2022-10-22T21:17:46.634Z,105.70
2022-10-22T21:22:49.737Z,62.30
2022-10-22T21:32:57.176Z,68.10
2022-10-22T21:38:00.488Z,226.70
2022-10-22T21:43:03.696Z,109.80
2022-10-22T21:53:12.466Z,110.30
2022-10-22T21:58:15.983Z,61.50
2022-10-22T22:03:19.114Z,64.80
2022-10-22T22:13:25.298Z,59.10
2022-10-22T22:18:30.249Z,65.40
2022-10-22T22:23:33.659Z,73.40
2022-10-22T22:28:37.892Z,67.00
2022-10-22T22:33:42.021Z,64.10
2022-10-22T22:38:45.125Z,51.40
2022-10-22T22:48:51.443Z,59.70
2022-10-22T22:53:54.852Z,47.10
2022-10-22T22:58:58.886Z,45.00
2022-10-22T23:04:12.996Z,46.00
2022-10-22T23:14:28.168Z,52.30
2022-10-22T23:24:35.301Z,59.10
2022-10-22T23:29:38.404Z,50.50
2022-10-22T23:34:42.532Z,55.50
2022-10-22T23:39:45.843Z,47.80
2022-10-22T23:44:48.888Z,46.00
2022-10-22T23:49:51.950Z,40.50
2022-10-22T23:54:55.161Z,41.20
